createdAt,value
2022-12-23T00:02:05.820Z,100537.56
2022-12-23T00:04:33.770Z,100529.81
2022-12-23T00:07:01.326Z,100518.47
2022-12-23T00:09:28.924Z,100525.19
2022-12-23T00:12:15.259Z,100521.69
2022-12-23T00:15:01.211Z,100510.41
2022-12-23T00:17:29.022Z,100527.69
2022-12-23T00:19:56.585Z,100521.47
2022-12-23T00:22:44.262Z,100517.94
2022-12-23T00:25:12.778Z,100510.97
2022-12-23T00:27:40.478Z,100510.88
2022-12-23T00:30:10.665Z,100512.56
2022-12-23T00:32:39.130Z,100494.31
2022-12-23T00:35:06.839Z,100495.19
2022-12-23T00:37:34.371Z,100485.66
2022-12-23T00:40:24.098Z,100489.06
2022-12-23T00:42:54.137Z,100489.84
2022-12-23T00:45:22.134Z,100499.56
2022-12-23T00:48:08.410Z,100487.41
2022-12-23T00:50:38.892Z,100487.28
2022-12-23T00:53:06.775Z,100487.22
2022-12-23T00:55:34.237Z,100483.75
2022-12-23T00:58:02.132Z,100478.47
2022-12-23T01:00:52.538Z,100468.91
2022-12-23T01:03:38.976Z,100468.97
2022-12-23T01:06:06.664Z,100467.16
2022-12-23T01:08:34.457Z,100466.53
2022-12-23T01:11:07.207Z,100469.81
2022-12-23T01:13:35.900Z,100468.84
2022-12-23T01:16:16.830Z,100467.09
2022-12-23T01:18:45.551Z,100459.38
2022-12-23T01:21:13.439Z,100446.34
2022-12-23T01:23:41.251Z,100451.44
2022-12-23T01:26:09.518Z,100453.13
2022-12-23T01:28:37.337Z,100452.44
2022-12-23T01:31:06.131Z,100445.66
2022-12-23T01:33:33.976Z,100452.75
2022-12-23T01:36:09.107Z,100442.25
2022-12-23T01:38:37.032Z,100442.22
2022-12-23T01:41:05.110Z,100434.44
2022-12-23T01:43:48.497Z,100440.44
2022-12-23T01:46:16.494Z,100438.75
2022-12-23T01:48:45.712Z,100439.59
2022-12-23T01:51:16.732Z,100443.78
2022-12-23T01:53:47.788Z,100448.09
2022-12-23T01:56:19.650Z,100449.78
2022-12-23T01:59:00.460Z,100447.97
2022-12-23T02:01:48.000Z,100443.56
2022-12-23T02:04:22.140Z,100439.22
2022-12-23T02:07:08.947Z,100436.56
2022-12-23T02:09:40.680Z,100434.91
2022-12-23T02:12:39.149Z,100448.19
2022-12-23T02:15:47.067Z,100442.91
2022-12-23T02:18:25.574Z,100448.09
2022-12-23T02:21:11.408Z,100445.47
2022-12-23T02:24:13.318Z,100436.72
2022-12-23T02:26:59.537Z,100447.06
2022-12-23T02:29:45.395Z,100438.41
2022-12-23T02:32:27.266Z,100435.69
2022-12-23T02:35:00.780Z,100425.25
2022-12-23T02:37:53.771Z,100424.47
2022-12-23T02:40:42.054Z,100424.75
2022-12-23T02:43:22.547Z,100419.56
2022-12-23T02:45:56.070Z,100411.19
2022-12-23T02:48:27.312Z,100415.28
2022-12-23T02:50:56.824Z,100414.25
2022-12-23T02:53:38.639Z,100424.59
2022-12-23T02:56:07.475Z,100424.72
2022-12-23T02:58:58.624Z,100419.47
2022-12-23T03:01:27.676Z,100410.97
2022-12-23T03:03:55.642Z,100404.19
2022-12-23T03:06:27.128Z,100395.56
2022-12-23T03:08:57.155Z,100408.38
2022-12-23T03:11:40.134Z,100403.97
2022-12-23T03:14:15.319Z,100398.75
2022-12-23T03:16:52.085Z,100392.06
2022-12-23T03:19:37.457Z,100394.69
2022-12-23T03:22:35.906Z,100392.13
2022-12-23T03:25:12.892Z,100394.56
2022-12-23T03:27:43.831Z,100385.13
2022-12-23T03:30:15.171Z,100396.19
2022-12-23T03:32:49.763Z,100378.88
2022-12-23T03:35:20.483Z,100385.00
2022-12-23T03:37:50.307Z,100388.47
2022-12-23T03:40:32.673Z,100385.78
2022-12-23T03:43:05.612Z,100389.97
2022-12-23T03:45:39.826Z,100388.22
2022-12-23T03:48:41.980Z,100395.12
2022-12-23T03:51:15.059Z,100393.37
2022-12-23T03:53:47.072Z,100385.09
2022-12-23T03:56:26.539Z,100384.25
2022-12-23T03:59:03.789Z,100378.03
2022-12-23T04:02:01.312Z,100387.66
2022-12-23T04:04:52.150Z,100389.56
2022-12-23T04:07:24.259Z,100390.44
2022-12-23T04:09:55.800Z,100384.62
2022-12-23T04:12:24.902Z,100381.72
2022-12-23T04:14:52.929Z,100382.47
2022-12-23T04:17:21.573Z,100381.53
2022-12-23T04:19:51.319Z,100375.00
2022-12-23T04:22:19.149Z,100380.88
2022-12-23T04:24:46.759Z,100371.53
2022-12-23T04:27:15.479Z,100374.31
2022-12-23T04:29:43.879Z,100383.84
2022-12-23T04:32:11.534Z,100395.91
2022-12-23T04:34:39.109Z,100388.19
2022-12-23T04:37:06.977Z,100389.00
2022-12-23T04:39:34.668Z,100393.53
2022-12-23T04:42:02.412Z,100392.50
2022-12-23T04:44:30.251Z,100399.19
2022-12-23T04:46:58.056Z,100380.03
2022-12-23T04:49:25.599Z,100385.22
2022-12-23T04:51:53.492Z,100387.03
2022-12-23T04:54:21.107Z,100388.00
2022-12-23T04:56:48.626Z,100381.25
2022-12-23T04:59:16.576Z,100387.41
2022-12-23T05:01:44.251Z,100390.72
2022-12-23T05:04:13.236Z,100390.59
2022-12-23T05:06:41.190Z,100389.06
2022-12-23T05:09:08.998Z,100387.59
2022-12-23T05:11:41.843Z,100400.41
2022-12-23T05:14:11.068Z,100399.37
2022-12-23T05:16:39.005Z,100408.00
2022-12-23T05:19:06.767Z,100403.88
2022-12-23T05:21:34.616Z,100398.97
2022-12-23T05:24:02.238Z,100406.84
2022-12-23T05:26:29.853Z,100416.31
2022-12-23T05:28:57.772Z,100413.72
2022-12-23T05:31:25.355Z,100418.06
2022-12-23T05:33:53.217Z,100429.38
2022-12-23T05:36:21.117Z,100424.19
2022-12-23T05:38:48.633Z,100424.63
2022-12-23T05:41:17.149Z,100427.69
2022-12-23T05:43:44.889Z,100423.28
2022-12-23T05:46:12.492Z,100420.94
2022-12-23T05:48:40.237Z,100414.69
2022-12-23T05:51:08.083Z,100406.53
2022-12-23T05:53:35.576Z,100416.84
2022-12-23T05:56:06.743Z,100409.72
2022-12-23T05:58:34.644Z,100407.31
2022-12-23T06:01:03.254Z,100411.00
2022-12-23T06:03:31.445Z,100419.66
2022-12-23T06:05:59.178Z,100423.13
2022-12-23T06:08:27.205Z,100425.75
2022-12-23T06:10:55.283Z,100416.13
2022-12-23T06:13:22.939Z,100416.06
2022-12-23T06:15:50.569Z,100415.41
2022-12-23T06:18:18.500Z,100416.97
2022-12-23T06:20:47.638Z,100422.03
2022-12-23T06:23:15.285Z,100415.03
2022-12-23T06:25:43.192Z,100420.13
2022-12-23T06:28:10.713Z,100431.91
2022-12-23T06:30:38.239Z,100424.63
2022-12-23T06:33:06.208Z,100426.28
2022-12-23T06:35:33.751Z,100434.13
2022-12-23T06:38:01.259Z,100454.13
2022-12-23T06:40:29.838Z,100447.19
2022-12-23T06:42:57.335Z,100463.56
2022-12-23T06:45:25.016Z,100469.84
2022-12-23T06:47:52.841Z,100469.75
2022-12-23T06:50:21.560Z,100482.22
2022-12-23T06:52:50.121Z,100474.16
2022-12-23T06:55:17.965Z,100476.78
2022-12-23T06:57:45.634Z,100481.06
2022-12-23T07:00:14.720Z,100476.78
2022-12-23T07:02:42.621Z,100472.88
2022-12-23T07:05:10.207Z,100473.38
2022-12-23T07:07:38.017Z,100469.06
2022-12-23T07:10:07.818Z,100469.06
2022-12-23T07:12:35.778Z,100462.84
2022-12-23T07:15:03.593Z,100465.50
2022-12-23T07:17:31.518Z,100466.25
2022-12-23T07:19:59.015Z,100456.53
2022-12-23T07:22:26.577Z,100459.06
2022-12-23T07:24:54.419Z,100453.87
2022-12-23T07:27:22.014Z,100458.28
2022-12-23T07:29:50.847Z,100461.91
2022-12-23T07:32:18.714Z,100465.03
2022-12-23T07:34:46.409Z,100463.38
2022-12-23T07:37:13.941Z,100465.97
2022-12-23T07:39:44.246Z,100444.34
2022-12-23T07:45:00.841Z,100435.28
2022-12-23T07:47:28.483Z,100440.34
2022-12-23T07:49:56.093Z,100441.13
2022-12-23T07:52:23.946Z,100436.87
2022-12-23T07:54:51.477Z,100444.72
2022-12-23T07:57:19.065Z,100439.47
2022-12-23T07:59:52.382Z,100439.97
2022-12-23T08:02:22.222Z,100443.72
2022-12-23T08:04:50.361Z,100434.97
2022-12-23T08:07:17.889Z,100435.47
2022-12-23T08:09:45.400Z,100422.38
2022-12-23T08:12:13.537Z,100430.13
2022-12-23T08:14:41.008Z,100437.94
2022-12-23T08:17:08.703Z,100435.28
2022-12-23T08:19:36.980Z,100435.94
2022-12-23T08:22:04.437Z,100442.72
2022-12-23T08:24:31.974Z,100449.56
2022-12-23T08:26:59.762Z,100458.13
2022-12-23T08:29:34.300Z,100456.34
2022-12-23T08:32:04.241Z,100470.81
2022-12-23T08:34:31.751Z,100459.09
2022-12-23T08:36:59.336Z,100462.47
2022-12-23T08:39:27.317Z,100471.34
2022-12-23T08:41:54.999Z,100471.69
2022-12-23T08:44:22.740Z,100474.34
2022-12-23T08:46:50.836Z,100477.44
2022-12-23T08:49:18.403Z,100473.69
2022-12-23T08:51:46.421Z,100475.66
2022-12-23T08:54:14.376Z,100486.16
2022-12-23T08:56:42.488Z,100480.84
2022-12-23T08:59:18.587Z,100480.50
2022-12-23T09:01:48.083Z,100464.25
2022-12-23T09:04:15.913Z,100472.75
2022-12-23T09:06:44.110Z,100464.22
2022-12-23T09:09:14.422Z,100464.84
2022-12-23T09:11:42.290Z,100458.75
2022-12-23T09:14:11.138Z,100457.00
2022-12-23T09:16:39.035Z,100444.66
2022-12-23T09:19:07.793Z,100448.19
2022-12-23T09:21:36.001Z,100436.72
2022-12-23T09:24:04.048Z,100446.00
2022-12-23T09:26:32.270Z,100446.00
2022-12-23T09:28:59.889Z,100441.75
2022-12-23T09:31:35.809Z,100437.41
2022-12-23T09:34:04.744Z,100436.28
2022-12-23T09:36:32.558Z,100431.34
2022-12-23T09:39:00.143Z,100425.72
2022-12-23T09:42:03.137Z,100419.69
2022-12-23T09:44:33.753Z,100416.59
2022-12-23T09:47:04.175Z,100418.81
2022-12-23T09:49:32.599Z,100416.28
2022-12-23T09:52:03.259Z,100421.19
2022-12-23T09:54:38.372Z,100417.13
2022-12-23T09:57:23.776Z,100428.13
2022-12-23T10:00:07.418Z,100420.59
2022-12-23T10:02:58.355Z,100425.34
2022-12-23T10:05:31.888Z,100413.31
2022-12-23T10:08:23.109Z,100401.62
2022-12-23T10:10:54.623Z,100413.97
2022-12-23T10:13:35.604Z,100409.25
2022-12-23T10:16:20.138Z,100417.06
2022-12-23T10:19:04.581Z,100418.72
2022-12-23T10:21:48.001Z,100409.63
2022-12-23T10:24:24.821Z,100400.91
2022-12-23T10:26:55.068Z,100395.38
2022-12-23T10:29:29.215Z,100384.06
2022-12-23T10:31:56.807Z,100385.50
2022-12-23T10:34:38.715Z,100388.12
2022-12-23T10:37:14.319Z,100383.03
2022-12-23T10:40:12.680Z,100378.31
2022-12-23T10:42:46.652Z,100378.97
2022-12-23T10:45:36.408Z,100384.09
2022-12-23T10:48:26.343Z,100376.88
2022-12-23T10:51:24.788Z,100371.56
2022-12-23T10:54:14.168Z,100369.72
2022-12-23T10:56:43.102Z,100372.72
2022-12-23T10:59:15.255Z,100364.81
2022-12-23T11:01:45.647Z,100366.06
2022-12-23T11:04:16.669Z,100369.16
2022-12-23T11:06:48.520Z,100362.00
2022-12-23T11:09:24.170Z,100376.06
2022-12-23T11:12:12.369Z,100367.88
2022-12-23T11:14:57.072Z,100362.06
2022-12-23T11:17:26.069Z,100360.31
2022-12-23T11:20:10.438Z,100362.41
2022-12-23T11:22:49.339Z,100358.81
2022-12-23T11:25:33.398Z,100356.41
2022-12-23T11:28:16.621Z,100347.03
2022-12-23T11:30:56.993Z,100341.25
2022-12-23T11:33:49.405Z,100335.91
2022-12-23T11:36:24.664Z,100329.78
2022-12-23T11:39:07.964Z,100314.47
2022-12-23T11:41:38.604Z,100322.22
2022-12-23T11:44:12.361Z,100311.47
2022-12-23T11:46:39.861Z,100303.28
2022-12-23T11:49:25.910Z,100297.03
2022-12-23T11:52:02.568Z,100299.38
2022-12-23T11:54:31.114Z,100302.25
2022-12-23T11:56:59.496Z,100297.87
2022-12-23T11:59:36.585Z,100298.41
2022-12-23T12:02:14.226Z,100292.16
2022-12-23T12:04:42.669Z,100294.31
2022-12-23T12:07:13.717Z,100286.72
2022-12-23T12:09:43.491Z,100281.53
2022-12-23T12:12:17.581Z,100282.25
2022-12-23T12:14:48.721Z,100276.41
2022-12-23T12:17:27.773Z,100284.66
2022-12-23T12:20:18.339Z,100284.50
2022-12-23T12:22:52.597Z,100290.31
2022-12-23T12:25:22.788Z,100277.94
2022-12-23T12:27:56.491Z,100293.09
2022-12-23T12:30:31.951Z,100277.69
2022-12-23T12:33:05.303Z,100272.38
2022-12-23T12:35:54.003Z,100283.31
2022-12-23T12:38:27.819Z,100279.47
2022-12-23T12:41:03.859Z,100277.09
2022-12-23T12:43:38.444Z,100278.47
2022-12-23T12:46:06.631Z,100275.75
2022-12-23T12:49:00.601Z,100274.63
2022-12-23T12:51:42.785Z,100274.63
2022-12-23T12:54:26.940Z,100265.94
2022-12-23T12:56:56.441Z,100273.72
2022-12-23T12:59:35.189Z,100277.81
2022-12-23T13:02:32.049Z,100267.94
2022-12-23T13:05:30.699Z,100266.00
2022-12-23T13:08:16.391Z,100267.75
2022-12-23T13:11:10.301Z,100281.84
2022-12-23T13:13:59.047Z,100279.78
2022-12-23T13:16:48.549Z,100281.37
2022-12-23T13:19:27.272Z,100276.84
2022-12-23T13:22:05.482Z,100269.81
2022-12-23T13:24:43.869Z,100265.38
2022-12-23T13:27:13.855Z,100263.63
2022-12-23T13:29:58.054Z,100259.12
2022-12-23T13:32:51.239Z,100270.31
2022-12-23T13:35:40.470Z,100271.97
2022-12-23T13:38:19.089Z,100267.50
2022-12-23T13:41:23.496Z,100273.75
2022-12-23T13:44:02.839Z,100285.13
2022-12-23T13:46:30.337Z,100266.94
2022-12-23T13:49:13.093Z,100267.78
2022-12-23T13:51:52.916Z,100270.47
2022-12-23T13:54:32.744Z,100270.47
2022-12-23T13:57:08.600Z,100269.66
2022-12-23T13:59:44.208Z,100277.66
2022-12-23T14:02:36.686Z,100274.13
2022-12-23T14:05:10.498Z,100275.97
2022-12-23T14:07:44.216Z,100274.31
2022-12-23T14:10:22.109Z,100264.81
2022-12-23T14:12:51.019Z,100277.94
2022-12-23T14:15:25.139Z,100267.66
2022-12-23T14:18:08.775Z,100272.88
2022-12-23T14:20:50.884Z,100262.66
2022-12-23T14:23:42.162Z,100275.78
2022-12-23T14:26:28.237Z,100274.94
2022-12-23T14:29:46.792Z,100274.09
2022-12-23T14:32:25.441Z,100273.94
2022-12-23T14:35:25.395Z,100289.03
2022-12-23T14:38:08.947Z,100295.88
2022-12-23T14:40:39.574Z,100296.69
2022-12-23T14:43:22.969Z,100293.16
2022-12-23T14:46:01.301Z,100301.84
2022-12-23T14:48:44.677Z,100295.75
2022-12-23T14:51:15.360Z,100304.38
2022-12-23T14:53:52.583Z,100299.22
2022-12-23T14:56:38.940Z,100297.44
2022-12-23T14:59:12.639Z,100303.44
2022-12-23T15:01:42.863Z,100301.72
2022-12-23T15:04:10.621Z,100302.59
2022-12-23T15:06:40.348Z,100293.12
2022-12-23T15:09:10.184Z,100303.41
2022-12-23T15:11:40.352Z,100302.44
2022-12-23T15:14:14.702Z,100302.50
2022-12-23T15:16:45.220Z,100292.84
2022-12-23T15:19:20.539Z,100290.97
2022-12-23T15:21:55.667Z,100298.59
2022-12-23T15:24:28.179Z,100303.94
2022-12-23T15:27:25.274Z,100297.94
2022-12-23T15:29:48.143Z,100290.91
2022-12-23T15:32:17.222Z,100292.44
2022-12-23T15:34:44.859Z,100291.53
2022-12-23T15:37:12.969Z,100298.03
2022-12-23T15:39:45.061Z,100299.84
2022-12-23T15:42:34.128Z,100307.66
2022-12-23T15:45:21.215Z,100314.47
2022-12-23T15:47:50.253Z,100312.00
2022-12-23T15:50:19.265Z,100311.16
2022-12-23T15:52:49.035Z,100310.41
2022-12-23T15:55:32.208Z,100312.25
2022-12-23T15:58:01.228Z,100300.94
2022-12-23T16:00:42.699Z,100295.06
2022-12-23T16:03:27.112Z,100298.53
2022-12-23T16:05:54.968Z,100316.16
2022-12-23T16:08:30.155Z,100305.00
2022-12-23T16:11:15.067Z,100306.03
2022-12-23T16:14:01.225Z,100295.78
2022-12-23T16:16:39.225Z,100292.25
2022-12-23T16:19:27.275Z,100288.09
2022-12-23T16:21:55.071Z,100291.06
2022-12-23T16:24:22.890Z,100293.12
2022-12-23T16:26:50.533Z,100295.91
2022-12-23T16:29:18.214Z,100301.34
2022-12-23T16:31:52.054Z,100298.75
2022-12-23T16:34:23.668Z,100300.69
2022-12-23T16:36:51.439Z,100292.19
2022-12-23T16:39:22.338Z,100296.47
2022-12-23T16:41:50.485Z,100271.37
2022-12-23T16:44:18.310Z,100284.41
2022-12-23T16:46:48.807Z,100282.03
2022-12-23T16:49:21.459Z,100287.72
2022-12-23T16:51:49.387Z,100287.13
2022-12-23T16:54:20.439Z,100283.66
2022-12-23T16:56:47.990Z,100274.03
2022-12-23T16:59:16.105Z,100262.81
2022-12-23T17:01:46.062Z,100269.31
2022-12-23T17:04:14.278Z,100279.16
2022-12-23T17:06:42.204Z,100290.22
2022-12-23T17:09:10.759Z,100302.50
2022-12-23T17:11:39.412Z,100299.81
2022-12-23T17:14:13.562Z,100300.66
2022-12-23T17:16:43.971Z,100304.09
2022-12-23T17:19:12.073Z,100301.66
2022-12-23T17:21:41.555Z,100291.13
2022-12-23T17:24:25.475Z,100291.00
2022-12-23T17:26:54.225Z,100282.16
2022-12-23T17:29:21.873Z,100284.69
2022-12-23T17:31:50.549Z,100280.28
2022-12-23T17:34:23.389Z,100278.47
2022-12-23T17:36:51.699Z,100268.00
2022-12-23T17:39:21.451Z,100264.50
2022-12-23T17:41:49.683Z,100265.44
2022-12-23T17:44:18.537Z,100278.63
2022-12-23T17:46:46.702Z,100274.56
2022-12-23T17:49:14.320Z,100268.63
2022-12-23T17:51:42.274Z,100259.94
2022-12-23T17:54:23.939Z,100261.66
2022-12-23T17:56:51.658Z,100257.31
2022-12-23T17:59:21.233Z,100257.50
2022-12-23T18:01:48.857Z,100284.81
2022-12-23T18:04:16.830Z,100296.38
2022-12-23T18:06:44.377Z,100296.28
2022-12-23T18:09:11.919Z,100302.28
2022-12-23T18:11:42.202Z,100291.78
2022-12-23T18:14:16.565Z,100283.03
2022-12-23T18:16:44.487Z,100282.97
2022-12-23T18:19:18.134Z,100271.63
2022-12-23T18:21:46.463Z,100281.13
2022-12-23T18:24:14.074Z,100278.53
2022-12-23T18:26:41.895Z,100279.41
2022-12-23T18:29:09.697Z,100277.59
2022-12-23T18:31:49.999Z,100280.16
2022-12-23T18:34:19.160Z,100269.72
2022-12-23T18:36:48.348Z,100273.16
2022-12-23T18:39:16.134Z,100267.00
2022-12-23T18:41:43.974Z,100275.69
2022-12-23T18:44:21.275Z,100286.25
2022-12-23T18:46:49.575Z,100294.06
2022-12-23T18:49:17.312Z,100295.84
2022-12-23T18:51:45.552Z,100291.50
2022-12-23T18:54:17.143Z,100297.56
2022-12-23T18:56:44.908Z,100288.13
2022-12-23T18:59:18.562Z,100292.34
2022-12-23T19:01:47.752Z,100287.19
2022-12-23T19:04:15.812Z,100283.81
2022-12-23T19:06:43.425Z,100290.63
2022-12-23T19:09:19.406Z,100283.66
2022-12-23T19:11:49.009Z,100265.41
2022-12-23T19:14:16.632Z,100269.78
2022-12-23T19:16:50.881Z,100274.13
2022-12-23T19:19:19.690Z,100273.28
2022-12-23T19:21:47.501Z,100267.25
2022-12-23T19:24:15.004Z,100262.94
2022-12-23T19:26:42.839Z,100274.37
2022-12-23T19:29:10.504Z,100265.84
2022-12-23T19:31:38.194Z,100278.75
2022-12-23T19:34:12.699Z,100280.53
2022-12-23T19:36:42.748Z,100280.59
2022-12-23T19:39:16.500Z,100290.44
2022-12-23T19:41:46.269Z,100290.47
2022-12-23T19:44:14.773Z,100272.13
2022-12-23T19:46:42.352Z,100269.47
2022-12-23T19:49:15.695Z,100267.78
2022-12-23T19:51:47.501Z,100270.53
2022-12-23T19:54:15.481Z,100279.41
2022-12-23T19:56:43.019Z,100278.63
2022-12-23T19:59:11.243Z,100285.53
2022-12-23T20:01:38.843Z,100282.03
2022-12-23T20:04:06.689Z,100294.19
2022-12-23T20:06:35.515Z,100292.50
2022-12-23T20:09:06.570Z,100303.94
2022-12-23T20:11:36.872Z,100298.66
2022-12-23T20:14:04.760Z,100301.19
2022-12-23T20:16:33.510Z,100302.03
2022-12-23T20:19:01.793Z,100298.56
2022-12-23T20:21:29.409Z,100292.66
2022-12-23T20:23:57.195Z,100308.28
2022-12-23T20:26:25.024Z,100297.16
2022-12-23T20:28:52.861Z,100302.25
2022-12-23T20:31:25.964Z,100308.44
2022-12-23T20:33:54.592Z,100315.63
2022-12-23T20:36:24.648Z,100310.53
2022-12-23T20:38:53.368Z,100311.16
2022-12-23T20:41:23.209Z,100317.22
2022-12-23T20:44:09.281Z,100320.69
2022-12-23T20:46:39.668Z,100317.22
2022-12-23T20:49:07.507Z,100315.00
2022-12-23T20:51:34.998Z,100320.78
2022-12-23T20:54:02.808Z,100324.00
2022-12-23T20:56:30.533Z,100325.50
2022-12-23T20:58:59.286Z,100323.69
2022-12-23T21:01:38.054Z,100314.25
2022-12-23T21:04:08.666Z,100325.41
2022-12-23T21:06:36.556Z,100315.81
2022-12-23T21:09:06.806Z,100320.09
2022-12-23T21:11:40.849Z,100313.12
2022-12-23T21:14:09.092Z,100314.81
2022-12-23T21:16:38.172Z,100312.97
2022-12-23T21:19:07.434Z,100313.84
2022-12-23T21:21:35.259Z,100314.72
2022-12-23T21:24:04.800Z,100312.09
2022-12-23T21:26:34.054Z,100313.78
2022-12-23T21:29:04.068Z,100311.16
2022-12-23T21:31:33.770Z,100305.81
2022-12-23T21:34:02.153Z,100298.81
2022-12-23T21:36:32.075Z,100301.41
2022-12-23T21:39:00.491Z,100297.84
2022-12-23T21:41:34.578Z,100297.03
2022-12-23T21:44:02.840Z,100303.25
2022-12-23T21:46:30.691Z,100297.94
2022-12-23T21:48:59.112Z,100293.53
2022-12-23T21:51:38.914Z,100290.91
2022-12-23T21:54:09.178Z,100290.06
2022-12-23T21:56:37.240Z,100288.31
2022-12-23T21:59:07.759Z,100285.84
2022-12-23T22:01:35.676Z,100283.28
2022-12-23T22:04:03.746Z,100271.13
2022-12-23T22:06:37.207Z,100266.81
2022-12-23T22:09:06.668Z,100265.06
2022-12-23T22:11:35.717Z,100258.13
2022-12-23T22:14:04.518Z,100263.41
2022-12-23T22:16:32.622Z,100264.25
2022-12-23T22:19:01.008Z,100260.87
2022-12-23T22:21:30.482Z,100263.47
2022-12-23T22:23:59.263Z,100257.41
2022-12-23T22:26:30.102Z,100254.88
2022-12-23T22:28:59.707Z,100258.25
2022-12-23T22:31:46.411Z,100263.41
2022-12-23T22:34:17.285Z,100259.91
2022-12-23T22:36:45.360Z,100259.84
2022-12-23T22:39:20.007Z,100259.75
2022-12-23T22:41:50.368Z,100262.28
2022-12-23T22:44:18.720Z,100256.12
2022-12-23T22:46:46.296Z,100248.16
2022-12-23T22:49:15.418Z,100246.16
2022-12-23T22:51:43.709Z,100238.22
2022-12-23T22:54:11.333Z,100243.19
2022-12-23T22:56:39.197Z,100236.16
2022-12-23T22:59:07.228Z,100242.03
2022-12-23T23:01:36.440Z,100233.19
2022-12-23T23:04:04.717Z,100236.56
2022-12-23T23:06:37.901Z,100242.69
2022-12-23T23:09:07.583Z,100240.72
2022-12-23T23:11:35.285Z,100239.41
2022-12-23T23:14:03.597Z,100238.44
2022-12-23T23:16:31.932Z,100237.78
2022-12-23T23:19:00.217Z,100241.63
2022-12-23T23:21:27.802Z,100224.44
2022-12-23T23:23:55.569Z,100233.87
2022-12-23T23:26:27.609Z,100238.75
2022-12-23T23:28:56.107Z,100227.53
2022-12-23T23:31:41.945Z,100220.94
2022-12-23T23:34:11.822Z,100212.53
2022-12-23T23:36:39.868Z,100211.66
2022-12-23T23:39:07.959Z,100216.72
2022-12-23T23:41:36.064Z,100213.13
2022-12-23T23:44:04.330Z,100201.97
2022-12-23T23:46:31.944Z,100199.38
2022-12-23T23:48:59.923Z,100189.78
2022-12-23T23:51:27.635Z,100194.13
2022-12-23T23:53:55.262Z,100191.50
2022-12-23T23:56:25.825Z,100188.94
2022-12-23T23:58:54.404Z,100182.00
